Time;durP1;ratioP1;P1;durP2;ratioP2;P2;SDS_P1;SDS_P2;PMS_P1;PMS_P2;Temp;Humidity;BMP_temperature;BMP_pressure;BME280_temperature;BME280_humidity;BME280_pressure;Samples;Min_cycle;Max_cycle;Signal;HPM_P1;HPM_P2
2021/11/04 00:05:53;;;;;;;38.38;18.10;;;7.60;99.90;;;;;;12305429;28;20059;-83
2021/11/04 00:11:55;;;;;;;74.53;19.42;;;7.60;99.90;;;;;;12296709;28;20130;-83
2021/11/04 00:17:59;;;;;;;60.03;19.23;;;7.60;99.90;;;;;;12300683;28;20104;-82
2021/11/04 00:24:01;;;;;;;48.40;18.45;;;7.60;99.90;;;;;;12303396;28;20101;-83
2021/11/04 00:30:05;;;;;;;32.80;17.88;;;7.70;99.90;;;;;;12316425;28;20942;-83
2021/11/04 00:36:07;;;;;;;63.35;19.05;;;7.70;99.90;;;;;;12302794;28;20061;-83
2021/11/04 00:42:10;;;;;;;37.80;17.05;;;7.60;99.90;;;;;;12332594;28;20043;-83
2021/11/04 00:48:12;;;;;;;47.88;19.02;;;7.60;99.90;;;;;;12304179;28;20447;-84
2021/11/04 00:54:14;;;;;;;42.80;19.00;;;7.60;99.90;;;;;;12288185;28;20821;-83
2021/11/04 01:00:16;;;;;;;46.00;19.30;;;7.60;99.90;;;;;;12300627;28;20050;-83
2021/11/04 01:06:20;;;;;;;84.60;21.52;;;7.60;99.90;;;;;;12303172;28;20156;-83
2021/11/04 01:12:23;;;;;;;43.75;18.63;;;7.60;99.90;;;;;;12322701;28;20142;-83
2021/11/04 01:18:25;;;;;;;67.35;20.38;;;7.60;99.90;;;;;;12312113;28;20816;-83
2021/11/04 01:24:27;;;;;;;47.35;19.45;;;7.70;99.90;;;;;;12300233;28;20500;-84
2021/11/04 01:30:29;;;;;;;69.30;21.67;;;7.70;99.90;;;;;;12311249;28;20085;-83
2021/11/04 01:36:31;;;;;;;93.50;22.33;;;7.70;99.90;;;;;;12308540;28;20463;-83
2021/11/04 01:42:33;;;;;;;79.28;21.13;;;7.70;99.90;;;;;;12316599;28;20066;-84
2021/11/04 01:48:34;;;;;;;53.00;20.55;;;7.70;99.90;;;;;;12315141;28;20138;-83
2021/11/04 01:54:37;;;;;;;62.55;21.02;;;7.70;99.90;;;;;;12308159;28;20125;-83
2021/11/04 02:00:39;;;;;;;37.83;19.63;;;7.70;99.90;;;;;;12320119;28;21300;-83
2021/11/04 02:14:29;;;;;;;70.13;22.77;;;7.70;99.90;;;;;;12303060;28;20062;-83
2021/11/04 02:20:56;;;;;;;40.30;20.73;;;7.70;99.90;;;;;;12303875;28;20061;-83
2021/11/04 02:27:01;;;;;;;42.88;20.20;;;7.80;99.90;;;;;;12300126;28;20574;-83
2021/11/04 02:33:04;;;;;;;218.15;24.90;;;7.80;99.90;;;;;;12319586;28;20047;-83
2021/11/04 02:39:06;;;;;;;47.42;20.05;;;7.80;99.90;;;;;;12303372;28;20399;-83
2021/11/04 02:45:10;;;;;;;113.45;21.13;;;7.80;99.90;;;;;;12295661;28;20055;-83
2021/11/04 02:51:12;;;;;;;;;;;7.90;99.90;;;;;;12311228;28;20061;-83
2021/11/04 02:57:14;;;;;;;93.90;19.00;;;7.80;99.90;;;;;;12339386;28;19930;-83
2021/11/04 03:03:16;;;;;;;68.07;19.98;;;7.80;99.90;;;;;;12304532;28;20121;-83
2021/11/04 03:09:20;;;;;;;155.55;23.80;;;7.80;99.90;;;;;;12304209;28;20055;-83
2021/11/04 03:15:23;;;;;;;117.83;19.80;;;7.80;99.90;;;;;;12290869;28;20558;-83
2021/11/04 03:21:29;;;;;;;179.23;20.60;;;7.80;99.90;;;;;;12305235;28;20050;-83
2021/11/04 03:27:32;;;;;;;274.70;24.63;;;7.90;99.90;;;;;;12313684;28;20136;-83
2021/11/04 03:33:35;;;;;;;408.40;26.27;;;8.00;99.90;;;;;;12303516;28;20055;-83
2021/11/04 03:39:39;;;;;;;328.08;25.13;;;7.90;99.90;;;;;;12304900;28;20098;-83
2021/11/04 03:45:42;;;;;;;294.33;21.58;;;7.90;99.90;;;;;;12325125;28;20108;-83
2021/11/04 03:51:45;;;;;;;213.65;18.95;;;8.00;99.90;;;;;;12295715;28;20054;-83
2021/11/04 03:57:49;;;;;;;363.87;22.23;;;7.90;99.90;;;;;;12321022;28;20051;-83
2021/11/04 04:03:51;;;;;;;187.83;18.53;;;8.00;99.90;;;;;;12302143;28;20495;-83
2021/11/04 04:09:54;;;;;;;476.33;26.13;;;8.00;99.90;;;;;;12296680;28;20085;-82
2021/11/04 04:15:56;;;;;;;622.75;33.42;;;8.00;99.90;;;;;;12306570;28;20135;-83
2021/11/04 04:21:58;;;;;;;558.10;30.67;;;7.90;99.90;;;;;;12297652;28;20038;-83
2021/11/04 04:28:00;;;;;;;449.27;27.35;;;7.90;99.90;;;;;;12305930;28;20081;-82
2021/11/04 04:34:02;;;;;;;488.25;30.75;;;7.90;99.90;;;;;;12308298;28;20078;-83
2021/11/04 04:40:05;;;;;;;517.70;32.55;;;7.80;99.90;;;;;;12318255;28;20047;-83
2021/11/04 04:46:06;;;;;;;432.90;28.35;;;7.90;99.90;;;;;;12308286;28;20050;-83
2021/11/04 04:52:09;;;;;;;414.27;27.17;;;7.80;99.90;;;;;;12316503;28;20057;-83
2021/11/04 04:58:11;;;;;;;526.80;33.63;;;7.80;99.90;;;;;;12298780;28;20553;-85
2021/11/04 05:04:13;;;;;;;564.92;36.05;;;7.80;99.90;;;;;;12294972;28;20192;-86
2021/11/04 05:10:15;;;;;;;504.95;33.95;;;7.80;99.90;;;;;;12298685;28;20054;-85
2021/11/04 05:16:17;;;;;;;551.47;36.08;;;7.80;99.90;;;;;;12304911;28;20054;-85
2021/11/04 05:22:19;;;;;;;285.15;24.65;;;7.80;99.90;;;;;;12303394;28;20404;-85
2021/11/04 05:28:21;;;;;;;416.15;31.13;;;7.90;99.90;;;;;;12291874;28;20059;-85
2021/11/04 05:34:23;;;;;;;468.55;32.10;;;7.80;99.90;;;;;;12300918;28;20062;-83
2021/11/04 05:40:25;;;;;;;432.15;34.47;;;7.80;99.90;;;;;;12299351;28;20376;-83
2021/11/04 05:46:26;;;;;;;376.25;29.50;;;7.80;99.90;;;;;;12297764;28;20459;-83
2021/11/04 05:52:28;;;;;;;206.98;26.75;;;7.80;99.90;;;;;;12297218;28;20101;-83
2021/11/04 05:58:30;;;;;;;562.50;37.90;;;7.90;99.90;;;;;;12296312;28;20491;-83
2021/11/04 06:04:34;;;;;;;424.38;34.78;;;7.90;99.90;;;;;;12295411;28;20050;-83
2021/11/04 06:10:36;;;;;;;313.58;32.88;;;7.80;99.90;;;;;;12310160;28;20058;-83
2021/11/04 06:16:38;;;;;;;342.52;34.58;;;7.80;99.90;;;;;;12302674;28;20047;-82
2021/11/04 06:22:40;;;;;;;405.13;38.33;;;7.80;99.90;;;;;;12309091;28;20600;-82
2021/11/04 06:28:43;;;;;;;165.77;33.47;;;7.80;99.90;;;;;;12302436;28;21103;-83
2021/11/04 06:34:44;;;;;;;87.90;30.27;;;7.80;99.90;;;;;;12305773;28;20057;-83
2021/11/04 06:40:47;;;;;;;83.72;28.98;;;7.80;99.90;;;;;;12307775;28;20383;-83
2021/11/04 06:46:49;;;;;;;139.00;29.73;;;7.80;99.90;;;;;;12308552;28;20127;-82
2021/11/04 06:53:04;;;;;;;97.93;29.38;;;7.80;99.90;;;;;;12324699;28;20138;-82
2021/11/04 06:59:16;;;;;;;88.57;30.42;;;7.80;99.90;;;;;;12300493;28;20106;-82
2021/11/04 07:05:19;;;;;;;105.05;30.40;;;7.80;99.90;;;;;;12332956;28;20063;-83
2021/11/04 07:11:21;;;;;;;121.50;32.08;;;7.80;99.90;;;;;;12339195;28;20047;-82
2021/11/04 07:17:23;;;;;;;66.80;26.17;;;7.80;99.90;;;;;;12305153;28;20070;-82
2021/11/04 07:23:39;;;;;;;66.18;26.05;;;7.80;99.90;;;;;;12303275;28;20058;-82
2021/11/04 07:29:48;;;;;;;60.47;25.58;;;7.80;99.90;;;;;;12297411;28;20073;-83
2021/11/04 07:35:52;;;;;;;46.53;22.05;;;7.70;99.90;;;;;;12318777;28;20047;-82
2021/11/04 07:41:54;;;;;;;39.83;18.80;;;7.80;99.90;;;;;;12305333;28;20053;-82
2021/11/04 07:47:57;;;;;;;31.50;16.48;;;7.80;99.90;;;;;;12305642;28;20174;-83
2021/11/04 07:53:58;;;;;;;23.88;14.40;;;7.70;99.90;;;;;;12306541;28;20050;-82
2021/11/04 08:00:04;;;;;;;22.50;13.50;;;7.70;99.90;;;;;;12298350;28;20594;-83
2021/11/04 08:06:06;;;;;;;20.60;13.00;;;7.70;99.90;;;;;;12282596;28;20715;-82
2021/11/04 08:12:08;;;;;;;19.60;12.32;;;7.80;99.90;;;;;;12304754;28;20411;-82
2021/11/04 08:18:11;;;;;;;20.30;12.55;;;7.80;99.90;;;;;;12296178;28;20835;-82
2021/11/04 08:24:13;;;;;;;19.45;11.93;;;7.70;99.90;;;;;;12302259;28;20082;-83
2021/11/04 08:30:16;;;;;;;18.13;11.23;;;7.70;99.90;;;;;;12308698;28;20137;-83
2021/11/04 08:36:17;;;;;;;18.20;11.52;;;7.70;99.90;;;;;;12304037;28;20136;-86
2021/11/04 08:42:19;;;;;;;17.30;11.80;;;7.70;99.90;;;;;;12303329;28;20050;-85
2021/11/04 08:48:23;;;;;;;19.63;11.63;;;7.80;99.90;;;;;;12302801;28;20423;-85
2021/11/04 08:54:25;;;;;;;12.95;9.35;;;7.80;99.90;;;;;;12305099;28;20074;-85
2021/11/04 09:00:27;;;;;;;14.80;9.65;;;7.90;99.90;;;;;;12298315;28;20058;-85
2021/11/04 09:06:29;;;;;;;15.57;10.10;;;7.80;99.90;;;;;;12297711;28;20540;-86
2021/11/04 09:12:31;;;;;;;17.92;10.52;;;7.90;99.90;;;;;;12297756;28;20050;-85
2021/11/04 09:18:33;;;;;;;14.27;9.68;;;7.90;99.90;;;;;;12298888;28;20053;-86
2021/11/04 09:24:37;;;;;;;20.23;12.63;;;7.80;99.90;;;;;;12305680;28;20458;-85
2021/11/04 09:30:41;;;;;;;22.33;14.45;;;7.90;99.90;;;;;;12304617;28;20067;-85
2021/11/04 09:36:43;;;;;;;26.98;15.77;;;7.90;99.90;;;;;;12313367;28;20751;-85
2021/11/04 09:42:46;;;;;;;28.98;16.45;;;7.90;99.90;;;;;;12340008;28;20055;-85
2021/11/04 09:48:48;;;;;;;29.20;17.08;;;8.00;99.90;;;;;;12312302;28;20055;-85
2021/11/04 09:54:50;;;;;;;28.13;17.60;;;8.00;99.90;;;;;;12310576;28;20059;-85
2021/11/04 10:00:53;;;;;;;30.52;18.63;;;8.00;99.90;;;;;;12306176;28;20530;-85
2021/11/04 10:06:56;;;;;;;29.88;18.50;;;8.00;99.90;;;;;;12299366;28;20115;-83
2021/11/04 10:13:04;;;;;;;31.20;18.48;;;8.00;99.90;;;;;;12311911;28;20043;-82
2021/11/04 10:19:08;;;;;;;30.20;17.92;;;8.00;99.90;;;;;;12346048;28;20098;-83
2021/11/04 10:25:23;;;;;;;30.88;18.52;;;7.90;99.90;;;;;;12315557;28;20893;-82
2021/11/04 10:31:25;;;;;;;28.20;17.52;;;8.00;99.90;;;;;;12326865;28;20046;-83
2021/11/04 10:37:27;;;;;;;26.75;18.00;;;8.00;99.90;;;;;;12318607;28;20052;-84
2021/11/04 10:43:29;;;;;;;26.83;17.45;;;8.10;99.90;;;;;;12308924;28;20131;-86
2021/11/04 10:49:47;;;;;;;25.83;15.77;;;8.20;99.90;;;;;;12307911;28;20081;-86
2021/11/04 10:56:07;;;;;;;24.15;15.73;;;8.10;99.90;;;;;;12325420;28;20046;-85
2021/11/04 11:02:10;;;;;;;23.80;15.05;;;8.20;99.90;;;;;;12342126;28;20169;-85
2021/11/04 11:08:14;;;;;;;22.23;14.25;;;8.20;99.90;;;;;;12309886;28;20063;-86
2021/11/04 11:14:17;;;;;;;19.42;13.40;;;8.30;99.90;;;;;;12322896;28;20165;-85
2021/11/04 11:20:19;;;;;;;20.50;13.00;;;8.20;99.90;;;;;;12308458;28;20109;-85
2021/11/04 11:26:21;;;;;;;21.38;13.55;;;8.20;99.90;;;;;;12314487;28;20559;-86
2021/11/04 11:32:29;;;;;;;22.10;14.38;;;8.30;99.90;;;;;;12311863;28;20134;-87
2021/11/04 11:38:31;;;;;;;22.77;14.93;;;8.10;99.90;;;;;;12325070;28;20066;-86
2021/11/04 11:44:49;;;;;;;23.92;14.75;;;8.30;99.90;;;;;;12325323;28;20407;-86
2021/11/04 11:50:53;;;;;;;22.92;15.40;;;8.10;99.90;;;;;;12301624;28;20074;-86
2021/11/04 11:57:14;;;;;;;24.45;15.50;;;8.00;99.90;;;;;;12321541;28;20083;-85
2021/11/04 12:03:49;;;;;;;22.85;15.90;;;8.10;99.90;;;;;;12300963;28;20051;-85
2021/11/04 12:09:51;;;;;;;22.50;14.48;;;8.10;99.90;;;;;;12293669;28;21176;-86
2021/11/04 12:16:12;;;;;;;22.38;14.88;;;8.00;99.90;;;;;;12308232;28;20108;-86
2021/11/04 12:22:18;;;;;;;22.27;14.63;;;8.00;99.90;;;;;;12322590;28;20171;-85
2021/11/04 12:28:19;;;;;;;;;;;8.30;99.90;;;;;;12307711;28;20149;-85
2021/11/04 12:34:24;;;;;;;25.02;17.58;;;8.30;99.90;;;;;;12305938;28;19961;-85
2021/11/04 12:40:26;;;;;;;25.85;16.77;;;8.20;99.90;;;;;;12307211;28;20503;-86
2021/11/04 12:46:31;;;;;;;24.13;16.25;;;8.20;99.90;;;;;;12323000;28;20054;-86
2021/11/04 12:52:32;;;;;;;28.45;17.33;;;8.00;99.90;;;;;;12309490;28;20096;-86
2021/11/04 12:58:34;;;;;;;28.67;18.20;;;8.20;99.90;;;;;;12309055;28;20051;-86
2021/11/04 13:04:42;;;;;;;28.73;16.95;;;8.20;99.90;;;;;;12302411;28;20922;-84
2021/11/04 13:10:44;;;;;;;34.70;18.17;;;8.00;99.90;;;;;;12336142;28;20047;-85
2021/11/04 13:16:46;;;;;;;36.38;19.77;;;8.00;99.90;;;;;;12305791;28;20273;-84
2021/11/04 13:23:06;;;;;;;40.15;20.48;;;7.90;99.90;;;;;;12301607;28;20442;-84
2021/11/04 13:29:08;;;;;;;41.22;21.58;;;8.10;99.90;;;;;;12301512;28;20490;-84
2021/11/04 13:35:26;;;;;;;42.92;21.85;;;8.00;99.90;;;;;;12294063;28;20046;-84
2021/11/04 13:41:34;;;;;;;41.08;21.40;;;8.10;99.90;;;;;;12302719;28;20057;-83
2021/11/04 13:47:41;;;;;;;41.15;21.33;;;8.10;99.90;;;;;;12306262;28;20062;-84
2021/11/04 13:53:43;;;;;;;41.10;21.15;;;8.00;99.90;;;;;;12301152;28;20046;-84
2021/11/04 13:59:57;;;;;;;38.35;19.73;;;7.80;99.90;;;;;;12317563;28;20050;-84
2021/11/04 14:06:01;;;;;;;44.90;22.35;;;8.00;99.90;;;;;;12299293;28;20040;-84
2021/11/04 14:12:11;;;;;;;42.55;20.58;;;7.90;99.90;;;;;;12304707;28;20047;-84
2021/11/04 14:18:19;;;;;;;45.47;21.02;;;7.90;99.90;;;;;;12299062;28;20582;-84
2021/11/04 14:24:21;;;;;;;40.03;19.80;;;7.90;99.90;;;;;;12359817;28;20055;-85
2021/11/04 14:30:24;;;;;;;43.65;20.80;;;7.90;99.90;;;;;;12308947;28;20050;-84
2021/11/04 14:36:28;;;;;;;37.13;19.27;;;7.90;99.90;;;;;;12310295;28;20066;-83
2021/11/04 14:42:31;;;;;;;39.60;20.52;;;7.80;99.90;;;;;;12326891;28;20065;-84
2021/11/04 14:48:33;;;;;;;35.10;17.23;;;7.90;99.90;;;;;;12307667;28;20622;-84
2021/11/04 14:54:35;;;;;;;28.10;15.90;;;7.80;99.90;;;;;;12325377;28;20046;-84
2021/11/04 15:00:37;;;;;;;26.33;15.35;;;7.80;99.90;;;;;;12300763;28;20051;-86
2021/11/04 15:06:39;;;;;;;25.73;15.30;;;7.60;99.90;;;;;;12304881;28;20069;-84
2021/11/04 15:12:41;;;;;;;25.77;15.43;;;7.70;99.90;;;;;;12303441;28;20147;-85
2021/11/04 15:18:46;;;;;;;20.67;13.48;;;7.70;99.90;;;;;;12307314;28;20057;-84
2021/11/04 15:24:48;;;;;;;21.23;13.48;;;7.70;99.90;;;;;;12305971;28;20053;-85
2021/11/04 15:30:50;;;;;;;20.50;12.88;;;7.70;99.90;;;;;;12304494;28;20072;-85
2021/11/04 15:36:52;;;;;;;21.45;13.70;;;7.70;99.90;;;;;;12305395;28;20050;-86
2021/11/04 15:42:54;;;;;;;19.38;12.55;;;7.70;99.90;;;;;;12306138;28;20097;-84
2021/11/04 15:48:57;;;;;;;18.52;12.88;;;7.70;99.90;;;;;;12299959;28;20083;-84
2021/11/04 15:54:59;;;;;;;22.70;14.35;;;7.70;99.90;;;;;;12322504;28;20134;-85
2021/11/04 16:01:02;;;;;;;21.02;13.88;;;7.60;99.90;;;;;;12309664;28;20053;-86
2021/11/04 16:07:05;;;;;;;23.45;15.00;;;7.70;99.90;;;;;;12315674;28;20043;-86
2021/11/04 16:13:20;;;;;;;26.33;15.90;;;7.70;99.90;;;;;;12307864;28;20051;-87
2021/11/04 16:19:22;;;;;;;26.38;16.60;;;7.70;99.90;;;;;;12297310;28;20051;-86
2021/11/04 16:25:24;;;;;;;25.90;16.35;;;7.60;99.90;;;;;;12298977;28;20104;-86
2021/11/04 16:31:26;;;;;;;26.08;16.35;;;7.70;99.90;;;;;;12292601;28;20117;-86
2021/11/04 16:37:28;;;;;;;28.60;17.23;;;7.50;99.90;;;;;;12305930;28;20043;-86
2021/11/04 16:43:31;;;;;;;27.67;17.17;;;7.60;99.90;;;;;;12298110;28;20054;-86
2021/11/04 16:49:34;;;;;;;27.70;17.05;;;7.50;99.90;;;;;;12295063;28;20065;-87
2021/11/04 16:55:46;;;;;;;26.17;16.73;;;7.60;99.90;;;;;;12293437;28;20898;-87
2021/11/04 17:01:54;;;;;;;26.75;17.02;;;7.60;99.90;;;;;;12274859;28;20194;-86
2021/11/04 17:07:56;;;;;;;27.85;16.92;;;7.50;99.90;;;;;;12313383;28;20070;-86
2021/11/04 17:13:59;;;;;;;25.35;17.40;;;7.60;99.90;;;;;;12314963;28;20046;-87
2021/11/04 17:20:02;;;;;;;27.30;18.40;;;7.40;99.90;;;;;;12298819;28;20059;-85
2021/11/04 17:26:04;;;;;;;26.67;18.30;;;7.40;99.90;;;;;;12315223;28;20143;-87
2021/11/04 17:32:08;;;;;;;31.85;20.05;;;7.50;99.90;;;;;;12308314;28;20070;-86
2021/11/04 17:38:10;;;;;;;29.77;19.65;;;7.50;99.90;;;;;;12303306;28;20500;-86
2021/11/04 17:44:12;;;;;;;30.38;21.13;;;7.50;99.90;;;;;;12290456;28;20051;-87
2021/11/04 17:50:16;;;;;;;29.85;20.17;;;7.50;99.90;;;;;;12298533;28;20576;-86
2021/11/04 17:56:18;;;;;;;33.00;20.83;;;7.60;99.90;;;;;;12322503;28;20058;-86
2021/11/04 18:02:20;;;;;;;28.50;20.25;;;7.50;99.90;;;;;;12312731;28;20057;-86
2021/11/04 18:08:23;;;;;;;32.08;21.10;;;7.50;99.90;;;;;;12303297;28;21483;-86
2021/11/04 18:14:26;;;;;;;30.85;20.63;;;7.40;99.90;;;;;;12307970;28;20058;-86
2021/11/04 18:20:28;;;;;;;29.30;19.83;;;7.50;99.90;;;;;;12306489;28;20065;-86
2021/11/04 18:26:31;;;;;;;29.35;20.27;;;7.50;99.90;;;;;;12310805;28;20551;-87
2021/11/04 18:32:33;;;;;;;32.88;21.23;;;7.50;99.90;;;;;;12320413;28;20078;-85
2021/11/04 18:38:35;;;;;;;33.25;21.45;;;7.60;99.90;;;;;;12309565;28;20063;-86
2021/11/04 18:44:37;;;;;;;37.33;22.98;;;7.60;99.90;;;;;;12306591;28;20419;-87
2021/11/04 18:50:43;;;;;;;33.33;22.67;;;7.50;99.90;;;;;;12308838;28;20055;-86
2021/11/04 18:56:46;;;;;;;30.90;21.73;;;7.50;99.90;;;;;;12306371;28;20187;-87
2021/11/04 19:02:48;;;;;;;31.65;21.38;;;7.50;99.90;;;;;;12307815;28;20089;-87
2021/11/04 19:08:50;;;;;;;33.67;22.17;;;7.60;99.90;;;;;;12307147;28;20061;-87
2021/11/04 19:14:55;;;;;;;34.80;21.35;;;7.60;99.90;;;;;;12305660;28;20147;-87
2021/11/04 19:20:57;;;;;;;29.53;20.23;;;7.60;99.90;;;;;;12308963;28;20047;-86
2021/11/04 19:26:59;;;;;;;28.27;19.38;;;7.60;99.90;;;;;;12305392;28;20051;-86
2021/11/04 19:33:01;;;;;;;28.70;19.13;;;7.60;99.90;;;;;;12320023;28;20047;-86
2021/11/04 19:39:04;;;;;;;26.88;18.90;;;7.60;99.90;;;;;;12297023;28;20058;-86
2021/11/04 19:45:09;;;;;;;26.95;18.90;;;7.60;99.90;;;;;;12307368;28;20047;-87
2021/11/04 19:51:10;;;;;;;27.50;17.92;;;7.60;99.90;;;;;;12299729;28;20117;-88
2021/11/04 19:57:15;;;;;;;27.02;17.60;;;7.60;99.90;;;;;;12300311;28;20051;-85
2021/11/04 20:03:17;;;;;;;30.25;19.25;;;7.60;99.90;;;;;;12303154;28;20085;-85
2021/11/04 20:09:20;;;;;;;29.98;18.85;;;7.70;99.90;;;;;;12320464;28;20058;-85
2021/11/04 20:15:22;;;;;;;26.05;18.63;;;7.70;99.90;;;;;;12300645;28;20499;-85
2021/11/04 20:21:24;;;;;;;27.40;18.60;;;7.70;99.90;;;;;;12303776;28;20132;-86
2021/11/04 20:27:26;;;;;;;30.33;20.58;;;7.60;99.90;;;;;;12297589;28;20168;-86
2021/11/04 20:33:28;;;;;;;26.75;19.35;;;7.70;99.90;;;;;;12303223;28;20047;-85
2021/11/04 20:39:30;;;;;;;26.98;19.20;;;7.70;99.90;;;;;;12324945;28;20488;-85
2021/11/04 20:45:32;;;;;;;31.55;21.42;;;7.70;99.90;;;;;;12313742;28;20118;-85
2021/11/04 20:51:34;;;;;;;30.92;20.80;;;7.50;99.90;;;;;;12322818;28;20149;-85
2021/11/04 20:57:37;;;;;;;31.95;20.17;;;7.60;99.90;;;;;;12302002;28;20062;-86
2021/11/04 21:03:38;;;;;;;32.85;22.40;;;7.60;99.90;;;;;;12304383;28;20049;-87
2021/11/04 21:09:40;;;;;;;30.70;20.63;;;7.70;99.90;;;;;;12302031;28;20061;-86
2021/11/04 21:15:44;;;;;;;34.80;21.73;;;7.70;99.90;;;;;;12301846;28;20125;-85
2021/11/04 21:21:46;;;;;;;37.13;22.77;;;7.60;99.90;;;;;;12301383;28;20070;-85
2021/11/04 21:27:49;;;;;;;34.90;23.17;;;7.60;99.90;;;;;;12303633;28;20592;-85
2021/11/04 21:33:52;;;;;;;37.65;24.92;;;7.50;99.90;;;;;;12312495;28;20138;-86
2021/11/04 21:39:54;;;;;;;37.95;24.75;;;7.50;99.90;;;;;;12312727;28;20043;-86
2021/11/04 21:45:56;;;;;;;40.03;26.52;;;7.50;99.90;;;;;;12313430;28;20061;-85
2021/11/04 21:51:59;;;;;;;39.25;25.65;;;7.50;99.90;;;;;;12309115;28;20054;-85
2021/11/04 21:58:01;;;;;;;41.53;27.58;;;7.50;99.90;;;;;;12328374;28;20171;-85
2021/11/04 22:04:03;;;;;;;40.97;27.02;;;7.60;99.90;;;;;;12312849;28;20097;-84
2021/11/04 22:10:05;;;;;;;41.05;26.75;;;7.60;99.90;;;;;;12309156;28;20054;-85
2021/11/04 22:16:07;;;;;;;44.50;28.85;;;7.50;99.90;;;;;;12311300;28;20064;-84
2021/11/04 22:22:10;;;;;;;44.63;29.25;;;7.50;99.90;;;;;;12306378;28;20054;-85
2021/11/04 22:28:13;;;;;;;43.17;27.98;;;7.60;99.90;;;;;;12313253;28;20168;-85
2021/11/04 22:34:16;;;;;;;40.90;27.08;;;7.50;99.90;;;;;;12310777;28;20110;-85
2021/11/04 22:40:18;;;;;;;42.75;27.60;;;7.50;99.90;;;;;;12309823;28;20065;-85
2021/11/04 22:46:22;;;;;;;42.85;25.60;;;7.50;99.90;;;;;;12341916;28;20503;-85
2021/11/04 22:52:24;;;;;;;43.70;26.43;;;7.50;99.90;;;;;;12311420;28;20504;-85
2021/11/04 22:58:26;;;;;;;39.88;25.65;;;7.60;99.90;;;;;;12309993;28;20166;-84
2021/11/04 23:04:28;;;;;;;40.17;24.60;;;7.50;99.90;;;;;;12334881;28;20170;-85
2021/11/04 23:10:31;;;;;;;36.45;23.60;;;7.50;99.90;;;;;;12328593;28;20110;-85
2021/11/04 23:16:33;;;;;;;35.90;24.02;;;7.40;99.90;;;;;;12332634;28;20096;-86
2021/11/04 23:22:35;;;;;;;41.30;24.98;;;7.50;99.90;;;;;;12312277;28;20175;-86
2021/11/04 23:28:37;;;;;;;37.30;23.58;;;7.40;99.90;;;;;;12311442;28;20047;-85
2021/11/04 23:34:39;;;;;;;40.65;24.05;;;7.40;99.90;;;;;;12310433;28;20131;-85
2021/11/04 23:40:41;;;;;;;38.45;24.25;;;7.40;99.90;;;;;;12304432;28;20047;-85
2021/11/04 23:46:43;;;;;;;41.72;26.00;;;7.30;99.90;;;;;;12311371;28;20055;-85
2021/11/04 23:52:45;;;;;;;40.92;25.10;;;7.30;99.90;;;;;;12301269;28;20097;-85
2021/11/04 23:58:47;;;;;;;39.15;25.17;;;7.30;99.90;;;;;;12325367;28;20796;-84
